Time;durP1;ratioP1;P1;durP2;ratioP2;P2;SDS_P1;SDS_P2;PMS_P1;PMS_P2;Temp;Humidity;BMP_temperature;BMP_pressure;BME280_temperature;BME280_humidity;BME280_pressure;Samples;Min_cycle;Max_cycle;Signal;HPM_P1;HPM_P2
2024/01/21 00:03:16;;;;;;;23.83;13.37;;;;;;;;;;12980902;22;20964;-81
2024/01/21 00:08:20;;;;;;;21.33;13.10;;;;;;;;;;12979549;22;20409;-79
2024/01/21 00:13:23;;;;;;;18.38;12.02;;;;;;;;;;12978869;22;20370;-79
2024/01/21 00:18:25;;;;;;;19.07;11.47;;;;;;;;;;12978194;22;20363;-80
2024/01/21 00:23:29;;;;;;;21.58;11.77;;;;;;;;;;12979202;22;20424;-80
2024/01/21 00:28:31;;;;;;;19.60;11.15;;;;;;;;;;12979350;22;20667;-80
2024/01/21 00:33:33;;;;;;;20.23;11.80;;;;;;;;;;12979307;22;20362;-80
2024/01/21 00:38:38;;;;;;;22.50;12.98;;;;;;;;;;12978971;22;20362;-79
2024/01/21 00:43:40;;;;;;;27.10;12.87;;;;;;;;;;12979053;22;20393;-79
2024/01/21 00:48:43;;;;;;;21.15;12.10;;;;;;;;;;12979315;22;20386;-80
2024/01/21 00:53:46;;;;;;;22.37;12.13;;;;;;;;;;12981013;22;20370;-79
2024/01/21 00:58:49;;;;;;;18.52;11.13;;;;;;;;;;12978777;22;20900;-79
2024/01/21 01:03:51;;;;;;;19.80;11.15;;;;;;;;;;12978349;22;20362;-79
2024/01/21 01:08:55;;;;;;;19.60;11.98;;;;;;;;;;12976586;22;20386;-80
2024/01/21 01:13:57;;;;;;;20.02;11.20;;;;;;;;;;12978891;22;20366;-79
2024/01/21 01:18:59;;;;;;;17.55;11.70;;;;;;;;;;12978463;22;20401;-80
2024/01/21 01:24:03;;;;;;;18.13;11.07;;;;;;;;;;12978609;22;20424;-79
2024/01/21 01:29:05;;;;;;;18.55;11.10;;;;;;;;;;12978230;22;20383;-80
2024/01/21 01:34:07;;;;;;;19.67;11.43;;;;;;;;;;12977406;22;20415;-80
2024/01/21 01:39:11;;;;;;;20.75;11.35;;;;;;;;;;12978670;22;20868;-80
2024/01/21 01:44:14;;;;;;;20.27;11.65;;;;;;;;;;12978219;22;20452;-80
2024/01/21 01:49:16;;;;;;;19.23;11.80;;;;;;;;;;12978325;22;20382;-79
2024/01/21 01:54:23;;;;;;;19.75;11.32;;;;;;;;;;12976851;22;20892;-79
2024/01/21 01:59:27;;;;;;;22.15;11.70;;;;;;;;;;12977792;22;20370;-81
2024/01/21 02:04:29;;;;;;;21.42;12.05;;;;;;;;;;12978701;22;20428;-80
2024/01/21 02:09:33;;;;;;;19.30;11.45;;;;;;;;;;12977096;22;20379;-80
2024/01/21 02:14:35;;;;;;;18.98;11.05;;;;;;;;;;12977009;22;20366;-79
2024/01/21 02:19:38;;;;;;;19.60;10.97;;;;;;;;;;12978842;22;21012;-80
2024/01/21 02:24:42;;;;;;;19.47;10.80;;;;;;;;;;12978549;22;20421;-80
2024/01/21 02:29:44;;;;;;;18.17;11.10;;;;;;;;;;12976788;22;20448;-79
2024/01/21 02:34:47;;;;;;;19.02;11.00;;;;;;;;;;12974275;22;20408;-79
2024/01/21 02:39:50;;;;;;;20.10;10.60;;;;;;;;;;12971367;22;20366;-79
2024/01/21 02:44:53;;;;;;;14.97;10.00;;;;;;;;;;12976202;22;21062;-79
2024/01/21 02:49:55;;;;;;;20.63;11.07;;;;;;;;;;12976394;22;20383;-79
2024/01/21 02:54:59;;;;;;;16.90;10.13;;;;;;;;;;12976831;22;20370;-78
2024/01/21 03:00:03;;;;;;;15.67;9.50;;;;;;;;;;12977003;22;20439;-80
2024/01/21 03:05:07;;;;;;;17.47;9.97;;;;;;;;;;12981453;22;20393;-80
2024/01/21 03:10:11;;;;;;;18.03;9.37;;;;;;;;;;12981893;22;20378;-81
2024/01/21 03:15:13;;;;;;;15.80;9.00;;;;;;;;;;12980624;22;20359;-80
2024/01/21 03:20:16;;;;;;;15.32;8.88;;;;;;;;;;12980147;22;20421;-80
2024/01/21 03:25:19;;;;;;;15.05;8.73;;;;;;;;;;12979373;22;20371;-79
2024/01/21 03:30:22;;;;;;;15.52;8.45;;;;;;;;;;12980476;22;20743;-80
2024/01/21 03:35:24;;;;;;;13.48;8.30;;;;;;;;;;12980115;22;20417;-79
2024/01/21 03:40:28;;;;;;;13.20;8.98;;;;;;;;;;12980559;22;20428;-80
2024/01/21 03:45:30;;;;;;;15.27;8.10;;;;;;;;;;12980795;22;20370;-80
2024/01/21 03:50:32;;;;;;;15.68;8.25;;;;;;;;;;12980294;22;20703;-80
2024/01/21 03:55:36;;;;;;;15.80;8.40;;;;;;;;;;12980164;22;20389;-78
2024/01/21 04:00:39;;;;;;;14.88;7.97;;;;;;;;;;12980275;22;20393;-80
2024/01/21 04:05:41;;;;;;;12.63;7.50;;;;;;;;;;12979392;22;20421;-80
2024/01/21 04:10:45;;;;;;;12.65;7.90;;;;;;;;;;12978635;22;20379;-80
2024/01/21 04:15:47;;;;;;;13.10;7.63;;;;;;;;;;12980989;22;20424;-79
2024/01/21 04:20:49;;;;;;;16.08;8.35;;;;;;;;;;12980222;22;20418;-79
2024/01/21 04:25:53;;;;;;;12.63;7.37;;;;;;;;;;12978795;22;20451;-79
2024/01/21 04:30:56;;;;;;;11.18;7.57;;;;;;;;;;12978919;22;20382;-79
2024/01/21 04:35:58;;;;;;;12.85;7.40;;;;;;;;;;12980213;22;20359;-79
2024/01/21 04:41:02;;;;;;;10.95;7.47;;;;;;;;;;12978274;22;20432;-79
2024/01/21 04:46:04;;;;;;;12.27;7.38;;;;;;;;;;12979792;22;20379;-80
2024/01/21 04:51:07;;;;;;;11.35;6.78;;;;;;;;;;12979224;22;20378;-80
2024/01/21 04:56:16;;;;;;;12.83;6.87;;;;;;;;;;12979216;22;20358;-81
2024/01/21 05:01:21;;;;;;;12.32;6.70;;;;;;;;;;12979446;22;20367;-80
2024/01/21 05:06:23;;;;;;;13.98;7.63;;;;;;;;;;12979095;22;20417;-80
2024/01/21 05:11:27;;;;;;;12.80;7.40;;;;;;;;;;12979047;22;20359;-79
2024/01/21 05:16:29;;;;;;;11.00;6.93;;;;;;;;;;12978784;22;20397;-79
2024/01/21 05:21:31;;;;;;;10.57;6.05;;;;;;;;;;12978592;22;20367;-80
2024/01/21 05:26:43;;;;;;;13.07;7.73;;;;;;;;;;12977486;22;20363;-80
2024/01/21 05:31:46;;;;;;;12.38;7.30;;;;;;;;;;12978389;22;20444;-80
2024/01/21 05:36:48;;;;;;;11.35;7.07;;;;;;;;;;12979826;22;20441;-80
2024/01/21 05:42:06;;;;;;;11.63;6.70;;;;;;;;;;12977445;22;20367;-77
2024/01/21 05:47:08;;;;;;;10.50;6.38;;;;;;;;;;12977678;22;20842;-80
2024/01/21 05:52:10;;;;;;;10.97;6.63;;;;;;;;;;12978736;22;20920;-80
2024/01/21 05:57:14;;;;;;;11.40;6.50;;;;;;;;;;12977386;22;20834;-80
2024/01/21 06:02:18;;;;;;;12.32;7.05;;;;;;;;;;12978768;22;20362;-79
2024/01/21 06:07:22;;;;;;;11.40;6.70;;;;;;;;;;12978220;22;20378;-79
2024/01/21 06:12:25;;;;;;;11.63;6.05;;;;;;;;;;12977439;22;20439;-80
2024/01/21 06:17:27;;;;;;;12.93;6.80;;;;;;;;;;12977479;22;20388;-79
2024/01/21 06:22:30;;;;;;;11.23;6.40;;;;;;;;;;12977493;22;20362;-81
2024/01/21 06:27:33;;;;;;;10.13;6.43;;;;;;;;;;12977374;22;20390;-79
2024/01/21 06:32:36;;;;;;;11.73;7.05;;;;;;;;;;12977770;22;20371;-81
2024/01/21 06:37:38;;;;;;;9.53;6.10;;;;;;;;;;12980383;22;20358;-81
2024/01/21 06:42:42;;;;;;;12.10;6.97;;;;;;;;;;12981531;22;20371;-81
2024/01/21 06:47:44;;;;;;;13.55;7.22;;;;;;;;;;12981926;22;20451;-79
2024/01/21 06:52:46;;;;;;;10.83;6.70;;;;;;;;;;12982391;22;20366;-80
2024/01/21 06:57:50;;;;;;;13.18;7.07;;;;;;;;;;12981620;22;20374;-79
2024/01/21 07:02:52;;;;;;;11.30;7.18;;;;;;;;;;12978108;22;20400;-80
2024/01/21 07:07:55;;;;;;;13.87;6.77;;;;;;;;;;12980156;22;20382;-80
2024/01/21 07:12:58;;;;;;;12.63;6.80;;;;;;;;;;12978612;22;20409;-80
2024/01/21 07:18:01;;;;;;;13.27;7.10;;;;;;;;;;12979926;22;20388;-80
2024/01/21 07:23:03;;;;;;;11.63;7.32;;;;;;;;;;12980715;22;20448;-79
2024/01/21 07:28:07;;;;;;;11.17;6.90;;;;;;;;;;12978439;22;20958;-79
2024/01/21 07:33:10;;;;;;;12.63;6.80;;;;;;;;;;12979442;22;20664;-80
2024/01/21 07:38:13;;;;;;;13.02;6.55;;;;;;;;;;12978568;22;20413;-79
2024/01/21 07:43:17;;;;;;;11.13;6.97;;;;;;;;;;12977861;22;20367;-81
2024/01/21 07:48:19;;;;;;;10.35;7.03;;;;;;;;;;12978683;22;20378;-80
2024/01/21 07:53:22;;;;;;;12.03;7.00;;;;;;;;;;12977603;22;20363;-79
2024/01/21 07:58:26;;;;;;;13.48;8.10;;;;;;;;;;12978849;22;20835;-79
2024/01/21 08:03:28;;;;;;;15.75;8.50;;;;;;;;;;12977625;22;20835;-79
2024/01/21 08:08:30;;;;;;;12.55;8.27;;;;;;;;;;12978853;22;20379;-80
2024/01/21 08:13:34;;;;;;;16.92;7.55;;;;;;;;;;12978213;22;20363;-80
2024/01/21 08:18:37;;;;;;;11.07;6.85;;;;;;;;;;12978904;22;20367;-80
2024/01/21 08:23:41;;;;;;;11.95;6.93;;;;;;;;;;12975211;22;20371;-80
2024/01/21 08:28:45;;;;;;;12.67;7.50;;;;;;;;;;12924035;22;20384;-80
2024/01/21 08:33:47;;;;;;;19.70;10.40;;;;;;;;;;12914101;22;20458;-78
2024/01/21 08:38:51;;;;;;;161.07;59.05;;;;;;;;;;12913186;22;20364;-80
2024/01/21 08:43:54;;;;;;;20.17;10.67;;;;;;;;;;12906693;22;20841;-80
2024/01/21 08:48:57;;;;;;;16.13;8.52;;;;;;;;;;12902000;22;20418;-80
2024/01/21 08:54:00;;;;;;;13.68;7.55;;;;;;;;;;12902958;22;20442;-78
2024/01/21 08:59:03;;;;;;;13.32;6.20;;;;;;;;;;12902294;22;20380;-77
2024/01/21 09:04:06;;;;;;;10.15;6.90;;;;;;;;;;12904250;22;20380;-81
2024/01/21 09:09:11;;;;;;;10.70;6.27;;;;;;;;;;12904470;22;20392;-80
2024/01/21 09:14:15;;;;;;;8.07;5.85;;;;;;;;;;12904054;22;20426;-79
2024/01/21 09:19:18;;;;;;;10.10;6.47;;;;;;;;;;12903841;22;20384;-77
2024/01/21 09:24:21;;;;;;;9.60;5.78;;;;;;;;;;12906386;22;20870;-81
2024/01/21 09:29:25;;;;;;;19.38;12.45;;;;;;;;;;12905283;22;20446;-81
2024/01/21 09:34:27;;;;;;;11.38;6.13;;;;;;;;;;12902005;22;20442;-80
2024/01/21 09:39:29;;;;;;;9.37;5.57;;;;;;;;;;12900584;22;20975;-80
2024/01/21 09:44:33;;;;;;;11.23;7.75;;;;;;;;;;12899715;22;20902;-80
2024/01/21 09:49:36;;;;;;;9.18;4.97;;;;;;;;;;12902445;22;20859;-80
2024/01/21 09:54:38;;;;;;;8.77;5.17;;;;;;;;;;12902290;22;20376;-80
2024/01/21 09:59:42;;;;;;;10.60;5.75;;;;;;;;;;12900981;22;20742;-80
2024/01/21 10:04:45;;;;;;;7.57;4.23;;;;;;;;;;12901643;22;20376;-81
2024/01/21 10:09:54;;;;;;;9.48;5.10;;;;;;;;;;12903773;22;20487;-81
2024/01/21 10:14:58;;;;;;;8.97;4.97;;;;;;;;;;12893476;22;20380;-81
2024/01/21 10:20:01;;;;;;;13.80;7.97;;;;;;;;;;12900563;22;20380;-80
2024/01/21 10:25:03;;;;;;;12.70;7.70;;;;;;;;;;12901912;22;20438;-78
2024/01/21 10:30:09;;;;;;;15.48;8.70;;;;;;;;;;12897903;22;20708;-81
2024/01/21 10:35:11;;;;;;;10.35;5.15;;;;;;;;;;12896107;22;20442;-81
2024/01/21 10:40:14;;;;;;;7.28;4.38;;;;;;;;;;12897989;22;20434;-80
2024/01/21 10:45:18;;;;;;;5.60;3.70;;;;;;;;;;12897397;22;20380;-80
2024/01/21 10:50:21;;;;;;;9.38;4.38;;;;;;;;;;12901303;22;20380;-79
2024/01/21 10:55:23;;;;;;;6.83;3.73;;;;;;;;;;12900922;22;20437;-80
2024/01/21 11:00:28;;;;;;;6.13;3.65;;;;;;;;;;12894798;22;20372;-81
2024/01/21 11:05:30;;;;;;;13.33;8.93;;;;;;;;;;12899236;22;20763;-81
2024/01/21 11:10:38;;;;;;;13.15;8.52;;;;;;;;;;12897588;22;20779;-80
2024/01/21 11:15:48;;;;;;;8.23;5.07;;;;;;;;;;12896903;22;20384;-81
2024/01/21 11:20:56;;;;;;;17.35;8.52;;;;;;;;;;12899743;22;20499;-81
2024/01/21 11:25:58;;;;;;;6.67;4.77;;;;;;;;;;12905158;22;20455;-79
2024/01/21 11:31:04;;;;;;;8.43;5.30;;;;;;;;;;12903372;22;20458;-79
2024/01/21 11:36:08;;;;;;;7.03;3.93;;;;;;;;;;12899196;22;20384;-80
2024/01/21 11:41:12;;;;;;;12.05;7.57;;;;;;;;;;12902180;22;20453;-79
2024/01/21 11:46:16;;;;;;;15.63;9.95;;;;;;;;;;12905061;22;20872;-79
2024/01/21 11:51:18;;;;;;;9.73;6.10;;;;;;;;;;12905757;22;20429;-79
2024/01/21 11:56:21;;;;;;;9.95;5.13;;;;;;;;;;12903976;22;20856;-80
2024/01/21 12:01:26;;;;;;;8.38;4.97;;;;;;;;;;12905484;22;20381;-80
2024/01/21 12:06:30;;;;;;;11.52;6.65;;;;;;;;;;12904439;22;20426;-79
2024/01/21 12:11:33;;;;;;;7.20;4.50;;;;;;;;;;12898639;22;20513;-79
2024/01/21 12:16:37;;;;;;;8.87;4.90;;;;;;;;;;12901066;22;20379;-78
2024/01/21 12:21:43;;;;;;;6.30;4.30;;;;;;;;;;12901688;22;20759;-79
2024/01/21 12:26:47;;;;;;;7.60;3.75;;;;;;;;;;12899939;22;20495;-79
2024/01/21 12:31:51;;;;;;;6.67;3.90;;;;;;;;;;12900397;22;20388;-80
2024/01/21 12:36:56;;;;;;;7.28;4.30;;;;;;;;;;12901471;22;20434;-79
2024/01/21 12:41:58;;;;;;;6.55;4.10;;;;;;;;;;12897599;22;20512;-79
2024/01/21 12:47:02;;;;;;;6.30;4.22;;;;;;;;;;12899004;22;20836;-79
2024/01/21 12:52:05;;;;;;;6.10;3.80;;;;;;;;;;12900935;22;20385;-80
2024/01/21 12:57:07;;;;;;;6.10;3.80;;;;;;;;;;12899693;22;20955;-80
2024/01/21 13:02:13;;;;;;;5.53;3.90;;;;;;;;;;12896129;22;21096;-79
2024/01/21 13:07:27;;;;;;;5.18;2.97;;;;;;;;;;12900600;22;20426;-79
2024/01/21 13:12:34;;;;;;;5.23;3.30;;;;;;;;;;12899113;22;20380;-79
2024/01/21 13:17:53;;;;;;;6.65;3.90;;;;;;;;;;12900442;22;20380;-79
2024/01/21 13:22:56;;;;;;;4.97;3.45;;;;;;;;;;12903554;22;20376;-80
2024/01/21 13:33:46;;;;;;;5.40;3.90;;;;;;;;;;10574196;27;20758;-78
2024/01/21 13:38:51;;;;;;;6.67;3.63;;;;;;;;;;10579855;27;20490;-78
2024/01/21 13:43:58;;;;;;;8.23;4.50;;;;;;;;;;10576328;27;20534;-78
2024/01/21 13:49:04;;;;;;;5.50;3.90;;;;;;;;;;10583170;27;20457;-80
2024/01/21 13:54:09;;;;;;;7.70;4.50;;;;;;;;;;10573318;27;20445;-79
2024/01/21 13:59:12;;;;;;;6.45;4.72;;;;;;;;;;10582069;27;20445;-78
2024/01/21 14:04:15;;;;;;;11.85;7.70;;;;;;;;;;10578180;27;21236;-79
2024/01/21 14:09:18;;;;;;;12.20;7.82;;;;;;;;;;10570920;27;20448;-79
2024/01/21 14:14:20;;;;;;;11.70;6.68;;;;;;;;;;10577600;27;20524;-78
2024/01/21 14:19:24;;;;;;;11.10;7.43;;;;;;;;;;10584709;28;20451;-79
2024/01/21 14:24:27;;;;;;;10.88;6.95;;;;;;;;;;10581583;27;20518;-80
2024/01/21 14:29:35;;;;;;;11.82;6.97;;;;;;;;;;10570677;27;20463;-80
2024/01/21 14:34:39;;;;;;;14.35;9.38;;;;;;;;;;10576448;27;20530;-80
2024/01/21 14:39:41;;;;;;;9.95;6.63;;;;;;;;;;10576019;27;20474;-80
2024/01/21 14:44:43;;;;;;;14.57;8.07;;;;;;;;;;10543744;27;20974;-81
2024/01/21 14:49:47;;;;;;;12.00;7.27;;;;;;;;;;10559664;28;20446;-80
2024/01/21 14:54:49;;;;;;;12.43;8.13;;;;;;;;;;10548284;28;20442;-80
2024/01/21 14:59:52;;;;;;;13.50;8.02;;;;;;;;;;10551719;28;20443;-81
2024/01/21 15:04:55;;;;;;;15.27;10.10;;;;;;;;;;10559703;28;20439;-80
2024/01/21 15:09:58;;;;;;;26.08;14.55;;;;;;;;;;10551441;27;20450;-81
2024/01/21 15:15:06;;;;;;;20.70;11.30;;;;;;;;;;10549333;27;20432;-81
2024/01/21 15:20:10;;;;;;;14.70;9.63;;;;;;;;;;10563969;28;20480;-80
2024/01/21 15:25:13;;;;;;;17.70;10.38;;;;;;;;;;10554633;28;20487;-81
2024/01/21 15:30:15;;;;;;;16.63;10.52;;;;;;;;;;10547063;27;21154;-80
2024/01/21 15:35:20;;;;;;;18.13;10.30;;;;;;;;;;10549888;27;20955;-81
2024/01/21 15:40:22;;;;;;;18.40;11.07;;;;;;;;;;10545310;27;21092;-81
2024/01/21 15:45:25;;;;;;;20.27;11.35;;;;;;;;;;10558043;27;20444;-81
2024/01/21 15:50:28;;;;;;;18.48;11.38;;;;;;;;;;10541017;27;20448;-80
2024/01/21 15:55:31;;;;;;;20.00;12.15;;;;;;;;;;10535913;27;20459;-80
2024/01/21 16:00:33;;;;;;;19.30;12.93;;;;;;;;;;10539539;27;20486;-80
2024/01/21 16:05:37;;;;;;;19.02;12.05;;;;;;;;;;10536377;27;20527;-80
2024/01/21 16:10:39;;;;;;;27.55;15.65;;;;;;;;;;10540362;28;20547;-80
2024/01/21 16:15:42;;;;;;;26.50;14.77;;;;;;;;;;10543343;27;20420;-81
2024/01/21 16:20:46;;;;;;;24.23;13.98;;;;;;;;;;10542894;28;20474;-81
2024/01/21 16:25:48;;;;;;;24.57;15.83;;;;;;;;;;10541290;28;20941;-81
2024/01/21 16:30:51;;;;;;;33.88;18.48;;;;;;;;;;10538071;28;21013;-81
2024/01/21 16:35:55;;;;;;;28.23;15.85;;;;;;;;;;10540992;28;20436;-81
2024/01/21 16:40:57;;;;;;;28.20;15.77;;;;;;;;;;10542795;27;20433;-81
2024/01/21 16:45:59;;;;;;;29.08;17.52;;;;;;;;;;10553077;28;20539;-81
2024/01/21 16:51:09;;;;;;;27.45;16.08;;;;;;;;;;10554933;28;20451;-80
2024/01/21 16:56:11;;;;;;;25.10;16.50;;;;;;;;;;10558129;28;20880;-81
2024/01/21 17:01:17;;;;;;;29.70;17.33;;;;;;;;;;10550224;28;20480;-80
2024/01/21 17:06:21;;;;;;;24.75;14.82;;;;;;;;;;10544689;27;20467;-80
2024/01/21 17:11:27;;;;;;;30.30;17.80;;;;;;;;;;10547921;27;20510;-80
2024/01/21 17:16:29;;;;;;;30.55;17.48;;;;;;;;;;10549541;28;20525;-82
2024/01/21 17:21:33;;;;;;;27.13;17.10;;;;;;;;;;10554265;27;20442;-82
2024/01/21 17:26:36;;;;;;;24.97;15.10;;;;;;;;;;10549747;27;20407;-83
2024/01/21 17:31:38;;;;;;;25.02;14.50;;;;;;;;;;10550194;27;20542;-83
2024/01/21 17:36:42;;;;;;;27.33;13.30;;;;;;;;;;10546592;28;20425;-83
2024/01/21 17:41:44;;;;;;;23.92;13.82;;;;;;;;;;10545466;27;20554;-81
2024/01/21 17:46:47;;;;;;;24.60;14.25;;;;;;;;;;10561199;28;20909;-84
2024/01/21 17:51:51;;;;;;;23.13;14.40;;;;;;;;;;10547559;27;20434;-84
2024/01/21 17:56:53;;;;;;;26.20;15.48;;;;;;;;;;10546230;28;20438;-84
2024/01/21 18:01:56;;;;;;;28.57;15.27;;;;;;;;;;10546824;27;20450;-84
2024/01/21 18:07:00;;;;;;;27.02;16.17;;;;;;;;;;10542809;28;20434;-85
2024/01/21 18:12:07;;;;;;;25.17;15.63;;;;;;;;;;10543968;28;20453;-84
2024/01/21 18:17:09;;;;;;;32.65;18.55;;;;;;;;;;10553228;28;20422;-84
2024/01/21 18:22:15;;;;;;;35.20;19.17;;;;;;;;;;10550692;27;20439;-83
2024/01/21 18:27:17;;;;;;;30.77;18.77;;;;;;;;;;10541763;27;20497;-84
2024/01/21 18:32:23;;;;;;;30.20;19.27;;;;;;;;;;10548262;28;20493;-83
2024/01/21 18:37:27;;;;;;;34.75;19.92;;;;;;;;;;10539332;28;20469;-82
2024/01/21 18:42:29;;;;;;;37.05;20.80;;;;;;;;;;10534798;28;20517;-82
2024/01/21 18:47:32;;;;;;;33.85;20.20;;;;;;;;;;10551847;28;20826;-82
2024/01/21 18:52:36;;;;;;;39.45;22.40;;;;;;;;;;10538728;28;20502;-82
2024/01/21 18:57:38;;;;;;;36.83;22.13;;;;;;;;;;10543387;27;20533;-82
2024/01/21 19:02:40;;;;;;;45.25;27.17;;;;;;;;;;10542867;28;20474;-82
2024/01/21 19:07:44;;;;;;;49.67;30.33;;;;;;;;;;10549734;28;20410;-82
2024/01/21 19:12:47;;;;;;;44.35;26.88;;;;;;;;;;10540773;28;20470;-82
2024/01/21 19:17:50;;;;;;;46.33;26.60;;;;;;;;;;10543800;28;20762;-80
2024/01/21 19:22:54;;;;;;;43.95;25.48;;;;;;;;;;10533912;27;20518;-82
2024/01/21 19:27:56;;;;;;;41.90;25.42;;;;;;;;;;10547905;27;20495;-81
2024/01/21 19:32:58;;;;;;;43.73;25.67;;;;;;;;;;10540352;27;20451;-83
2024/01/21 19:38:04;;;;;;;42.38;26.05;;;;;;;;;;10537690;28;20413;-82
2024/01/21 19:43:06;;;;;;;41.25;24.55;;;;;;;;;;10540543;27;20452;-83
2024/01/21 19:48:09;;;;;;;49.47;27.05;;;;;;;;;;10537787;28;20850;-81
2024/01/21 19:53:13;;;;;;;45.50;25.23;;;;;;;;;;10531754;28;20470;-81
2024/01/21 19:58:16;;;;;;;44.97;26.67;;;;;;;;;;10539802;28;20931;-81
2024/01/21 20:03:20;;;;;;;49.67;27.90;;;;;;;;;;10538676;28;20523;-81
2024/01/21 20:08:23;;;;;;;41.80;23.67;;;;;;;;;;10547426;28;20446;-81
2024/01/21 20:13:26;;;;;;;43.00;24.97;;;;;;;;;;10540739;27;20478;-81
2024/01/21 20:18:29;;;;;;;43.95;25.85;;;;;;;;;;10531270;27;20513;-81
2024/01/21 20:23:33;;;;;;;50.17;28.50;;;;;;;;;;10538125;27;20485;-81
2024/01/21 20:28:36;;;;;;;46.72;25.30;;;;;;;;;;10528450;27;20530;-82
2024/01/21 20:33:38;;;;;;;36.15;21.88;;;;;;;;;;10547610;27;20524;-81
2024/01/21 20:38:42;;;;;;;44.72;23.58;;;;;;;;;;10540759;28;20448;-81
2024/01/21 20:43:46;;;;;;;48.53;24.87;;;;;;;;;;10541483;27;20495;-79
2024/01/21 20:48:48;;;;;;;39.30;23.60;;;;;;;;;;10544824;28;20442;-79
2024/01/21 20:53:52;;;;;;;41.97;23.48;;;;;;;;;;10545295;28;20438;-81
2024/01/21 20:58:54;;;;;;;57.15;29.73;;;;;;;;;;10540956;28;20446;-81
2024/01/21 21:03:57;;;;;;;36.95;22.17;;;;;;;;;;10535060;28;20412;-81
2024/01/21 21:09:00;;;;;;;38.13;23.50;;;;;;;;;;10538890;28;22343;-80
2024/01/21 21:14:03;;;;;;;45.08;23.17;;;;;;;;;;10538233;28;20446;-81
2024/01/21 21:19:05;;;;;;;42.90;25.60;;;;;;;;;;10551188;28;20426;-80
2024/01/21 21:24:09;;;;;;;34.72;21.67;;;;;;;;;;10549867;28;20442;-81
2024/01/21 21:29:12;;;;;;;46.17;26.27;;;;;;;;;;10548808;28;20446;-80
2024/01/21 21:34:14;;;;;;;54.58;27.88;;;;;;;;;;10548237;28;20448;-80
2024/01/21 21:39:17;;;;;;;52.10;26.40;;;;;;;;;;10543205;28;20508;-80
2024/01/21 21:44:20;;;;;;;47.17;25.17;;;;;;;;;;10544246;28;20487;-80
2024/01/21 21:49:23;;;;;;;45.03;24.17;;;;;;;;;;10547729;28;20497;-80
2024/01/21 21:54:28;;;;;;;37.97;21.95;;;;;;;;;;10555542;27;20463;-81
2024/01/21 21:59:31;;;;;;;35.90;22.23;;;;;;;;;;10551180;27;20492;-81
2024/01/21 22:04:33;;;;;;;40.00;21.70;;;;;;;;;;10552554;28;20479;-81
2024/01/21 22:09:37;;;;;;;35.08;21.15;;;;;;;;;;10540897;28;20491;-81
2024/01/21 22:14:39;;;;;;;38.00;20.48;;;;;;;;;;10542481;27;20837;-81
2024/01/21 22:19:42;;;;;;;36.72;20.95;;;;;;;;;;10540058;28;20469;-81
2024/01/21 22:24:46;;;;;;;35.92;21.10;;;;;;;;;;10551264;27;20444;-81
2024/01/21 22:29:48;;;;;;;37.70;21.67;;;;;;;;;;10548510;27;20491;-81
2024/01/21 22:34:52;;;;;;;35.53;20.70;;;;;;;;;;10542425;27;20499;-82
2024/01/21 22:39:56;;;;;;;37.75;21.35;;;;;;;;;;10542390;28;20396;-80
2024/01/21 22:44:58;;;;;;;34.10;20.10;;;;;;;;;;10544139;27;20410;-81
2024/01/21 22:50:00;;;;;;;36.33;21.30;;;;;;;;;;10557283;27;20428;-82
2024/01/21 22:55:05;;;;;;;36.47;21.48;;;;;;;;;;10548616;27;20493;-81
2024/01/21 23:00:11;;;;;;;47.13;26.37;;;;;;;;;;10556215;27;20408;-81
2024/01/21 23:05:13;;;;;;;45.38;27.50;;;;;;;;;;10544716;27;20404;-81
2024/01/21 23:10:17;;;;;;;62.75;34.03;;;;;;;;;;10545795;27;20427;-80
2024/01/21 23:15:20;;;;;;;56.13;31.55;;;;;;;;;;10544769;28;20423;-81
2024/01/21 23:20:22;;;;;;;57.10;30.97;;;;;;;;;;10541528;28;20937;-81
2024/01/21 23:25:26;;;;;;;51.72;30.20;;;;;;;;;;10541355;28;20405;-81
2024/01/21 23:30:28;;;;;;;53.45;29.92;;;;;;;;;;10544224;28;20902;-81
2024/01/21 23:35:32;;;;;;;45.40;25.63;;;;;;;;;;10542138;28;20469;-81
2024/01/21 23:40:38;;;;;;;40.23;25.50;;;;;;;;;;10541056;28;20408;-81
2024/01/21 23:45:40;;;;;;;41.00;24.52;;;;;;;;;;10547334;27;20408;-81
2024/01/21 23:50:42;;;;;;;38.50;23.48;;;;;;;;;;10549366;28;20413;-81
2024/01/21 23:55:46;;;;;;;37.38;23.25;;;;;;;;;;10551687;28;20452;-80
